Hannover, Germany

11:14 PM CEST on October 20, 2014 (GMT +0200)
ILOWERSA5 | Change Station
CLOSE
Current Station
Personal Weather Station
Location: Hannover, LOWER SAXONY
Elevation: 194 ft
Nearby Weather Stations

Elev 194 ft 52.40 °N, 9.73 °E | Updated 0 second ago

Light Rain
Light Rain
56.1 °F
Feels Like 56.1 °F
N
0.0
Wind Variable Wind from SW
Gusts 7.0 mph

Today
High -- | Low -- °F
--% Chance of Precip.
Yesterday
High -- | Low -- °F
Precip. -- in
7:55 AM 6:15 PM
Waning Crescent, 9% visible
Pressure 29.89 in
Visibility 6.2 miles
Clouds Mostly Cloudy 2300 ft
Dew Point 53 °F
Humidity 88%
Rainfall 0.30 in
Snow Depth Not available.
UV 0 out of 12
Pollen Not available.
Air Quality Not available.
Flu Activity Not available.
METAR EDDV 202050Z 26006KT 230V290 9999 -RA BKN023 13/11 Q1012 NOSIG

More Conditions Fewer Conditions

Pressure 29.89 in
Visibility 6.2 miles
Clouds Mostly Cloudy 2300 ft
Dew Point 53 °F
Humidity 88%
Rainfall 0.30 in
Snow Depth Not available.
UV 0 out of 12
Pollen Not available.
Air Quality Not available.
Flu Activity Not available.
METAR EDDV 202050Z 26006KT 230V290 9999 -RA BKN023 13/11 Q1012 NOSIG

More Conditions Fewer Conditions

10-Day Weather Forecast

Almanac

Astronomy

Oct. 20, 2014 Rise Set
Actual Time 7:55 AM CEST 6:15 PM CEST
Civil Twilight 7:20 AM CEST 6:50 PM CEST
Nautical Twilight 6:40 AM CEST 7:30 PM CEST
Astronomical Twilight 6:01 AM CEST 8:09 PM CEST
Moon 4:02 AM CEST 4:51 PM CEST
Length of Visible Light 11h 30m
Length of Day
10h 20m
Tomorrow will be 3m 56s shorter.
Waning Crescent, 9% of the Moon is Illuminated
Today
Waning Crescent
Oct 23
New
Oct 30
First Quarter
Nov 6
Full
Nov 14
Last Quarter

Today's Extremes

Country Highs Country Lows

Community

WunderPhotos

Upload Photos

1,763,510 photos uploaded!

WunderBlogs® & News

By Dr. Jeff Masters
Director of Meteorology, Weather Underground
By Kari Strenfel
Meteorologist, Weather Underground
By Christopher C. Burt
Weather Historian, Weather Underground
October 20, 2014
October 20, 2014
October 20, 2014

Nearby

Snow Depth

Not available.

Earthquake Activity

City Distance Mag. Time & Date
No recent earthquake activity has been reported nearby.
Minimum magnitude displayed is 2.5.

Coastal Water Temperatures

Place Temperature
No Stations Reporting

Nearby Weather Stations